createdAt,value
2023-05-06T00:01:26.942Z,68.90
2023-05-06T00:03:55.131Z,69.00
2023-05-06T00:06:23.382Z,69.00
2023-05-06T00:08:51.597Z,69.00
2023-05-06T00:11:19.632Z,69.00
2023-05-06T00:13:47.668Z,68.90
2023-05-06T00:16:15.811Z,68.90
2023-05-06T00:18:45.276Z,69.10
2023-05-06T00:21:13.375Z,69.30
2023-05-06T00:23:41.445Z,69.30
2023-05-06T00:26:10.240Z,69.40
2023-05-06T00:28:38.300Z,69.50
2023-05-06T00:31:06.525Z,69.50
2023-05-06T00:33:34.578Z,69.50
2023-05-06T00:36:04.106Z,69.40
2023-05-06T00:38:32.144Z,69.70
2023-05-06T00:41:00.193Z,69.60
2023-05-06T00:43:28.411Z,69.40
2023-05-06T00:45:56.521Z,69.40
2023-05-06T00:48:24.874Z,69.50
2023-05-06T00:50:53.245Z,69.50
2023-05-06T00:53:22.736Z,69.60
2023-05-06T00:55:51.538Z,69.70
2023-05-06T00:58:21.212Z,69.60
2023-05-06T01:00:52.207Z,69.90
2023-05-06T01:03:20.595Z,70.00
2023-05-06T01:06:08.103Z,70.00
2023-05-06T01:08:45.332Z,70.40
2023-05-06T01:11:17.921Z,70.30
2023-05-06T01:13:51.324Z,69.90
2023-05-06T01:16:22.958Z,69.90
2023-05-06T01:18:53.311Z,69.80
2023-05-06T01:21:22.259Z,69.70
2023-05-06T01:23:57.785Z,69.70
2023-05-06T01:26:26.546Z,69.70
2023-05-06T01:28:54.964Z,69.70
2023-05-06T01:31:28.026Z,69.70
2023-05-06T01:34:09.720Z,70.00
2023-05-06T01:36:46.740Z,70.20
2023-05-06T01:39:19.207Z,70.20
2023-05-06T01:41:49.795Z,70.20
2023-05-06T01:44:18.550Z,69.80
2023-05-06T01:46:47.223Z,69.30
2023-05-06T01:49:17.764Z,69.30
2023-05-06T01:51:49.196Z,69.40
2023-05-06T01:54:18.685Z,69.60
2023-05-06T01:56:46.755Z,69.70
2023-05-06T01:59:14.799Z,69.70
2023-05-06T02:01:42.925Z,70.00
2023-05-06T02:04:10.981Z,70.10
2023-05-06T02:06:39.033Z,70.40
2023-05-06T02:09:07.083Z,70.50
2023-05-06T02:11:36.543Z,70.50
2023-05-06T02:14:04.648Z,70.80
2023-05-06T02:16:32.868Z,70.70
2023-05-06T02:19:01.052Z,70.50
2023-05-06T02:21:29.580Z,70.50
2023-05-06T02:23:57.637Z,70.40
2023-05-06T02:26:25.699Z,70.40
2023-05-06T02:28:55.173Z,70.20
2023-05-06T02:31:23.231Z,70.10
2023-05-06T02:33:51.329Z,70.00
2023-05-06T02:36:19.372Z,70.70
2023-05-06T02:38:47.398Z,70.10
2023-05-06T02:41:15.595Z,70.20
2023-05-06T02:43:43.638Z,70.50
2023-05-06T02:46:13.679Z,70.40
2023-05-06T02:48:42.008Z,70.30
2023-05-06T02:51:10.049Z,69.90
2023-05-06T02:53:38.106Z,69.70
2023-05-06T02:56:07.291Z,69.40
2023-05-06T02:58:35.336Z,69.50
2023-05-06T03:01:03.450Z,69.70
2023-05-06T03:03:34.333Z,69.60
2023-05-06T03:06:02.390Z,69.70
2023-05-06T03:08:30.444Z,69.80
2023-05-06T03:10:58.483Z,69.90
2023-05-06T03:13:26.514Z,70.00
2023-05-06T03:15:54.928Z,70.20
2023-05-06T03:18:23.019Z,70.10
2023-05-06T03:20:52.450Z,70.00
2023-05-06T03:23:20.570Z,69.90
2023-05-06T03:25:48.651Z,69.90
2023-05-06T03:28:16.764Z,70.10
2023-05-06T03:30:44.828Z,70.10
2023-05-06T03:33:12.886Z,70.10
2023-05-06T03:35:41.105Z,70.00
2023-05-06T03:38:10.593Z,69.90
2023-05-06T03:40:38.818Z,69.60
2023-05-06T03:43:06.848Z,69.30
2023-05-06T03:45:34.902Z,69.10
2023-05-06T03:48:03.027Z,69.10
2023-05-06T03:50:31.121Z,69.00
2023-05-06T03:52:59.330Z,69.00
2023-05-06T03:55:28.768Z,68.90
2023-05-06T03:57:56.800Z,68.80
2023-05-06T04:00:24.898Z,68.80
2023-05-06T04:02:53.029Z,68.70
2023-05-06T04:05:21.155Z,68.80
2023-05-06T04:07:49.309Z,68.90
2023-05-06T04:10:17.456Z,68.70
2023-05-06T04:12:47.261Z,68.70
2023-05-06T04:15:15.358Z,68.90
2023-05-06T04:17:43.454Z,69.10
2023-05-06T04:20:12.320Z,69.10
2023-05-06T04:22:40.401Z,69.30
2023-05-06T04:25:09.768Z,69.60
2023-05-06T04:27:37.982Z,69.80
2023-05-06T04:30:08.784Z,70.60
2023-05-06T04:32:38.494Z,69.90
2023-05-06T04:35:07.791Z,69.70
2023-05-06T04:37:35.966Z,69.80
2023-05-06T04:40:04.497Z,70.10
2023-05-06T04:42:33.560Z,70.30
2023-05-06T04:45:02.097Z,70.60
2023-05-06T04:47:31.540Z,70.90
2023-05-06T04:49:59.616Z,71.10
2023-05-06T04:52:27.655Z,71.30
2023-05-06T04:54:55.692Z,71.70
2023-05-06T04:57:23.724Z,72.00
2023-05-06T04:59:51.768Z,72.40
2023-05-06T05:02:19.818Z,72.50
2023-05-06T05:04:49.274Z,72.70
2023-05-06T05:07:17.432Z,72.80
2023-05-06T05:09:45.542Z,72.50
2023-05-06T05:12:13.576Z,72.50
2023-05-06T05:14:42.568Z,72.40
2023-05-06T05:17:10.993Z,72.40
2023-05-06T05:19:39.120Z,72.40
2023-05-06T05:22:08.536Z,72.30
2023-05-06T05:24:36.574Z,72.40
2023-05-06T05:27:04.654Z,72.40
2023-05-06T05:29:32.702Z,72.40
2023-05-06T05:32:00.735Z,72.40
2023-05-06T05:34:28.893Z,72.60
2023-05-06T05:36:57.484Z,72.70
2023-05-06T05:39:26.957Z,72.90
2023-05-06T05:41:54.995Z,73.00
2023-05-06T05:44:23.070Z,73.20
2023-05-06T05:46:51.797Z,73.30
2023-05-06T05:49:19.851Z,73.40
2023-05-06T05:51:47.910Z,73.30
2023-05-06T05:54:16.499Z,73.30
2023-05-06T05:56:46.144Z,73.30
2023-05-06T05:59:14.185Z,73.70
2023-05-06T06:01:42.233Z,73.70
2023-05-06T06:04:10.446Z,73.80
2023-05-06T06:06:38.670Z,73.90
2023-05-06T06:09:07.284Z,73.90
2023-05-06T06:11:35.380Z,73.80
2023-05-06T06:14:04.792Z,73.70
2023-05-06T06:16:32.942Z,73.80
2023-05-06T06:19:01.233Z,73.90
2023-05-06T06:21:29.328Z,73.90
2023-05-06T06:23:57.824Z,73.70
2023-05-06T06:26:25.901Z,73.90
2023-05-06T06:28:54.048Z,74.00
2023-05-06T06:31:23.511Z,73.90
2023-05-06T06:33:51.667Z,73.50
2023-05-06T06:36:19.717Z,73.20
2023-05-06T06:38:47.732Z,73.10
2023-05-06T06:41:15.850Z,73.20
2023-05-06T06:43:43.950Z,73.00
2023-05-06T06:46:12.095Z,73.40
2023-05-06T06:48:41.518Z,73.40
2023-05-06T06:51:09.546Z,73.30
2023-05-06T06:53:37.592Z,72.80
2023-05-06T06:56:09.480Z,72.70
2023-05-06T06:58:37.338Z,72.60
2023-05-06T07:01:05.587Z,72.90
2023-05-06T07:03:33.696Z,71.70
2023-05-06T07:06:03.189Z,71.70
2023-05-06T07:08:31.325Z,71.60
2023-05-06T07:10:59.379Z,71.60
2023-05-06T07:13:27.468Z,71.10
2023-05-06T07:15:55.516Z,70.80
2023-05-06T07:18:23.617Z,70.80
2023-05-06T07:20:51.774Z,70.80
2023-05-06T07:23:21.427Z,70.30
2023-05-06T07:25:49.512Z,70.20
2023-05-06T07:28:17.693Z,69.80
2023-05-06T07:30:46.355Z,69.30
2023-05-06T07:33:14.417Z,68.70
2023-05-06T07:35:42.480Z,68.50
2023-05-06T07:38:10.518Z,68.10
2023-05-06T07:40:39.946Z,67.70
2023-05-06T07:43:09.180Z,66.90
2023-05-06T07:45:37.236Z,66.40
2023-05-06T07:48:05.867Z,66.00
2023-05-06T07:50:34.412Z,65.60
2023-05-06T07:53:02.492Z,65.10
2023-05-06T07:55:32.317Z,64.90
2023-05-06T07:58:02.769Z,65.10
2023-05-06T08:00:30.874Z,64.70
2023-05-06T08:02:59.057Z,64.50
2023-05-06T08:05:27.152Z,64.30
2023-05-06T08:07:55.716Z,64.00
2023-05-06T08:10:23.942Z,63.80
2023-05-06T08:12:52.047Z,63.70
2023-05-06T08:15:21.740Z,63.60
2023-05-06T08:17:49.827Z,63.40
2023-05-06T08:20:18.038Z,62.60
2023-05-06T08:22:46.082Z,61.70
2023-05-06T08:25:14.277Z,61.50
2023-05-06T08:27:42.328Z,61.00
2023-05-06T08:30:11.312Z,60.70
2023-05-06T08:32:41.141Z,60.30
2023-05-06T08:35:10.268Z,60.00
2023-05-06T08:37:38.582Z,59.40
2023-05-06T08:40:10.581Z,59.10
2023-05-06T08:42:40.203Z,58.30
2023-05-06T08:45:10.307Z,57.60
2023-05-06T08:47:40.001Z,57.30
2023-05-06T08:50:10.044Z,57.20
2023-05-06T08:52:39.150Z,56.50
2023-05-06T08:55:09.088Z,56.40
2023-05-06T08:57:39.379Z,56.30
2023-05-06T09:00:11.840Z,56.10
2023-05-06T09:02:43.122Z,56.00
2023-05-06T09:05:12.508Z,55.90
2023-05-06T09:07:40.863Z,55.60
2023-05-06T09:10:13.269Z,55.40
2023-05-06T09:12:41.515Z,55.30
2023-05-06T09:15:11.505Z,55.00
2023-05-06T09:17:41.220Z,55.10
2023-05-06T09:20:13.186Z,54.40
2023-05-06T09:22:41.366Z,53.80
2023-05-06T09:25:11.946Z,53.40
2023-05-06T09:27:40.699Z,53.30
2023-05-06T09:30:11.620Z,53.80
2023-05-06T09:32:41.734Z,54.00
2023-05-06T09:35:11.808Z,54.10
2023-05-06T09:37:40.367Z,54.20
2023-05-06T09:40:10.223Z,54.20
2023-05-06T09:42:39.488Z,54.00
2023-05-06T09:45:10.593Z,54.00
2023-05-06T09:47:40.657Z,53.30
2023-05-06T09:50:11.253Z,53.40
2023-05-06T09:52:39.297Z,53.00
2023-05-06T09:55:08.621Z,52.20
2023-05-06T09:57:38.195Z,51.50
2023-05-06T10:00:12.004Z,51.10
2023-05-06T10:02:43.050Z,51.20
2023-05-06T10:05:13.812Z,50.40
2023-05-06T10:07:42.800Z,50.50
2023-05-06T10:10:13.037Z,50.30
2023-05-06T10:12:41.388Z,50.50
2023-05-06T10:15:11.023Z,51.50
2023-05-06T10:17:42.820Z,50.20
2023-05-06T10:20:14.589Z,49.80
2023-05-06T10:22:49.210Z,50.00
2023-05-06T10:25:29.953Z,51.50
2023-05-06T10:27:58.495Z,50.10
2023-05-06T10:30:28.942Z,50.90
2023-05-06T10:33:00.641Z,49.80
2023-05-06T10:35:32.723Z,49.70
2023-05-06T10:38:01.888Z,51.20
2023-05-06T10:40:30.122Z,49.80
2023-05-06T10:43:23.887Z,49.00
2023-05-06T10:46:02.623Z,49.00
2023-05-06T10:48:32.496Z,49.00
2023-05-06T10:51:22.938Z,49.20
2023-05-06T10:53:58.962Z,49.30
2023-05-06T10:56:27.609Z,49.60
2023-05-06T10:58:56.442Z,49.50
2023-05-06T11:01:27.131Z,49.70
2023-05-06T11:03:56.694Z,49.50
2023-05-06T11:06:39.456Z,49.00
2023-05-06T11:09:07.979Z,48.40
2023-05-06T11:11:52.894Z,48.90
2023-05-06T11:14:31.692Z,48.40
2023-05-06T11:17:01.585Z,48.10
2023-05-06T11:19:32.857Z,48.50
2023-05-06T11:22:02.533Z,48.40
2023-05-06T11:24:31.728Z,48.80
2023-05-06T11:27:01.696Z,49.00
2023-05-06T11:29:29.786Z,48.50
2023-05-06T11:31:57.874Z,48.40
2023-05-06T11:34:27.939Z,48.60
2023-05-06T11:37:05.118Z,48.30
2023-05-06T11:39:39.659Z,47.90
2023-05-06T11:42:09.486Z,48.30
2023-05-06T11:44:39.392Z,48.50
2023-05-06T11:47:09.682Z,48.20
2023-05-06T11:49:39.551Z,47.80
2023-05-06T11:52:09.557Z,47.70
2023-05-06T11:54:40.090Z,48.20
2023-05-06T11:57:08.483Z,48.20
2023-05-06T11:59:38.255Z,48.10
2023-05-06T12:02:07.957Z,48.20
2023-05-06T12:04:40.523Z,47.90
2023-05-06T12:07:11.014Z,47.70
2023-05-06T12:09:40.857Z,47.90
2023-05-06T12:12:10.094Z,48.20
2023-05-06T12:14:39.262Z,47.90
2023-05-06T12:17:07.796Z,47.70
2023-05-06T12:19:36.947Z,47.60
2023-05-06T12:22:20.387Z,47.40
2023-05-06T12:24:49.429Z,46.90
2023-05-06T12:27:32.985Z,46.90
2023-05-06T12:30:02.701Z,46.30
2023-05-06T12:32:31.803Z,46.90
2023-05-06T12:35:00.782Z,46.80
2023-05-06T12:37:31.098Z,46.60
2023-05-06T12:39:59.635Z,46.40
2023-05-06T12:42:28.355Z,46.60
2023-05-06T12:44:57.354Z,46.60
2023-05-06T12:47:26.891Z,46.60
2023-05-06T12:49:57.993Z,46.70
2023-05-06T12:52:28.588Z,46.90
2023-05-06T12:54:58.352Z,46.80
2023-05-06T12:57:26.399Z,47.00
2023-05-06T12:59:56.313Z,47.30
2023-05-06T13:02:24.604Z,47.10
2023-05-06T13:04:52.752Z,47.20
2023-05-06T13:07:22.246Z,47.60
2023-05-06T13:09:50.373Z,47.20
2023-05-06T13:12:19.802Z,47.40
2023-05-06T13:14:47.825Z,47.40
2023-05-06T13:17:16.101Z,47.50
2023-05-06T13:19:44.275Z,47.30
2023-05-06T13:22:12.473Z,47.70
2023-05-06T13:24:40.761Z,47.80
2023-05-06T13:27:08.888Z,47.90
2023-05-06T13:29:38.295Z,47.40
2023-05-06T13:32:08.580Z,47.40
2023-05-06T13:34:37.107Z,47.50
2023-05-06T13:37:05.141Z,47.50
2023-05-06T13:39:33.197Z,47.40
2023-05-06T13:42:02.888Z,47.40
2023-05-06T13:44:30.992Z,47.30
2023-05-06T13:47:00.456Z,47.10
2023-05-06T13:49:28.495Z,47.00
2023-05-06T13:51:57.368Z,46.70
2023-05-06T13:54:25.530Z,46.80
2023-05-06T13:56:53.560Z,46.30
2023-05-06T13:59:22.707Z,46.30
2023-05-06T14:01:53.667Z,46.40
2023-05-06T14:04:23.222Z,46.30
2023-05-06T14:06:51.569Z,46.10
2023-05-06T14:09:19.631Z,46.30
2023-05-06T14:11:47.708Z,46.30
2023-05-06T14:14:15.874Z,46.10
2023-05-06T14:16:43.977Z,46.20
2023-05-06T14:19:12.049Z,46.00
2023-05-06T14:21:41.462Z,46.20
2023-05-06T14:24:10.830Z,46.00
2023-05-06T14:26:38.909Z,46.20
2023-05-06T14:29:06.955Z,45.40
2023-05-06T14:31:35.670Z,45.50
2023-05-06T14:34:03.744Z,46.00
2023-05-06T14:36:31.789Z,46.00
2023-05-06T14:39:01.266Z,46.30
2023-05-06T14:41:29.334Z,45.90
2023-05-06T14:43:57.347Z,45.60
2023-05-06T14:46:27.751Z,45.60
2023-05-06T14:48:57.367Z,45.20
2023-05-06T14:51:25.486Z,45.40
2023-05-06T14:53:53.507Z,45.10
2023-05-06T14:56:22.950Z,45.00
2023-05-06T14:58:51.001Z,44.80
2023-05-06T15:01:19.070Z,45.00
2023-05-06T15:03:47.126Z,45.00
2023-05-06T15:06:15.164Z,45.10
2023-05-06T15:08:43.233Z,44.70
2023-05-06T15:11:11.282Z,45.00
2023-05-06T15:13:40.713Z,44.80
2023-05-06T15:16:11.205Z,44.70
2023-05-06T15:18:41.756Z,44.30
2023-05-06T15:21:09.933Z,44.30
2023-05-06T15:23:38.445Z,44.20
2023-05-06T15:26:06.690Z,44.40
2023-05-06T15:28:34.750Z,44.50
2023-05-06T15:31:04.192Z,44.50
2023-05-06T15:33:32.301Z,44.50
2023-05-06T15:36:00.346Z,44.70
2023-05-06T15:38:28.383Z,44.70
2023-05-06T15:40:56.475Z,44.50
2023-05-06T15:43:26.489Z,44.70
2023-05-06T15:46:05.527Z,44.70
2023-05-06T15:48:33.597Z,44.80
2023-05-06T15:51:01.664Z,45.10
2023-05-06T15:53:29.888Z,44.80
2023-05-06T15:56:07.222Z,45.10
2023-05-06T15:58:43.135Z,45.40
2023-05-06T16:01:13.305Z,45.60
2023-05-06T16:03:42.232Z,45.70
2023-05-06T16:06:11.918Z,45.90
2023-05-06T16:08:40.151Z,45.80
2023-05-06T16:11:09.385Z,45.70
2023-05-06T16:13:37.499Z,45.90
2023-05-06T16:16:06.309Z,45.80
2023-05-06T16:18:35.801Z,46.10
2023-05-06T16:21:04.457Z,46.10
2023-05-06T16:23:32.558Z,46.20
2023-05-06T16:26:00.928Z,45.90
2023-05-06T16:28:28.980Z,45.90
2023-05-06T16:30:57.034Z,45.80
2023-05-06T16:33:25.136Z,45.90
2023-05-06T16:35:54.643Z,46.00
2023-05-06T16:38:22.892Z,46.00
2023-05-06T16:40:51.367Z,46.10
2023-05-06T16:43:19.702Z,46.20
2023-05-06T16:45:47.798Z,46.50
2023-05-06T16:48:16.984Z,46.70
2023-05-06T16:50:45.179Z,46.70
2023-05-06T16:53:14.708Z,46.80
2023-05-06T16:55:47.726Z,47.10
2023-05-06T16:58:15.895Z,47.30
2023-05-06T17:00:44.106Z,47.10
2023-05-06T17:03:12.528Z,47.20
2023-05-06T17:05:40.726Z,47.30
2023-05-06T17:08:10.649Z,47.40
2023-05-06T17:10:40.335Z,47.60
2023-05-06T17:13:08.465Z,47.80
2023-05-06T17:15:36.571Z,48.00
2023-05-06T17:18:04.824Z,48.40
2023-05-06T17:20:38.010Z,48.70
2023-05-06T17:23:15.914Z,49.10
2023-05-06T17:25:45.328Z,49.80
2023-05-06T17:28:13.362Z,50.50
2023-05-06T17:30:41.557Z,50.70
2023-05-06T17:33:09.828Z,50.70
2023-05-06T17:35:38.009Z,51.30
2023-05-06T17:38:06.043Z,52.30
2023-05-06T17:40:34.262Z,52.90
2023-05-06T17:43:03.697Z,53.00
2023-05-06T17:45:31.765Z,53.10
2023-05-06T17:47:59.839Z,52.80
2023-05-06T17:50:28.137Z,52.90
2023-05-06T17:52:56.207Z,53.20
2023-05-06T17:55:24.429Z,53.50
2023-05-06T17:57:52.846Z,53.60
2023-05-06T18:00:22.676Z,53.60
2023-05-06T18:02:50.863Z,53.70
2023-05-06T18:05:19.009Z,54.00
2023-05-06T18:07:48.006Z,54.20
2023-05-06T18:10:16.082Z,54.40
2023-05-06T18:12:45.395Z,54.60
2023-05-06T18:15:15.385Z,54.90
2023-05-06T18:17:45.952Z,55.20
2023-05-06T18:20:14.698Z,55.50
2023-05-06T18:22:43.069Z,55.40
2023-05-06T18:25:11.840Z,55.60
2023-05-06T18:27:40.211Z,55.70
2023-05-06T18:30:09.412Z,55.70
2023-05-06T18:32:37.525Z,55.90
2023-05-06T18:35:07.839Z,55.90
2023-05-06T18:37:36.297Z,55.90
2023-05-06T18:40:04.551Z,55.90
2023-05-06T18:42:33.877Z,55.90
2023-05-06T18:45:04.575Z,56.10
2023-05-06T18:47:33.154Z,56.30
2023-05-06T18:50:01.505Z,56.50
2023-05-06T18:52:30.932Z,56.70
2023-05-06T18:54:59.020Z,57.00
2023-05-06T18:57:27.538Z,57.00
2023-05-06T18:59:56.364Z,57.20
2023-05-06T19:02:24.448Z,57.30
2023-05-06T19:04:52.489Z,57.80
2023-05-06T19:07:20.576Z,57.40
2023-05-06T19:09:50.109Z,57.60
2023-05-06T19:12:18.333Z,57.60
2023-05-06T19:14:46.425Z,57.50
2023-05-06T19:17:15.837Z,57.60
2023-05-06T19:19:46.772Z,57.70
2023-05-06T19:22:15.490Z,57.70
2023-05-06T19:24:43.550Z,57.60
2023-05-06T19:27:12.996Z,57.60
2023-05-06T19:29:41.101Z,57.60
2023-05-06T19:32:09.597Z,57.70
2023-05-06T19:34:37.652Z,58.00
2023-05-06T19:37:05.746Z,57.90
2023-05-06T19:39:33.799Z,58.10
2023-05-06T19:42:01.867Z,58.30
2023-05-06T19:44:31.273Z,58.60
2023-05-06T19:46:59.287Z,58.60
2023-05-06T19:49:27.338Z,58.70
2023-05-06T19:51:55.391Z,58.80
2023-05-06T19:54:23.403Z,58.80
2023-05-06T19:56:51.422Z,58.80
2023-05-06T19:59:19.466Z,58.80
2023-05-06T20:01:49.077Z,58.90
2023-05-06T20:04:17.206Z,58.90
2023-05-06T20:06:46.017Z,59.00
2023-05-06T20:09:14.055Z,59.00
2023-05-06T20:11:42.162Z,58.90
2023-05-06T20:14:10.189Z,59.00
2023-05-06T20:16:38.878Z,59.00
2023-05-06T20:19:08.833Z,59.00
2023-05-06T20:21:36.917Z,59.20
2023-05-06T20:24:05.383Z,59.20
2023-05-06T20:26:33.480Z,59.30
2023-05-06T20:29:03.853Z,59.30
2023-05-06T20:31:32.001Z,59.50
2023-05-06T20:34:00.176Z,59.50
2023-05-06T20:36:30.699Z,59.60
2023-05-06T20:39:00.549Z,59.90
2023-05-06T20:41:28.682Z,60.00
2023-05-06T20:43:57.240Z,60.10
2023-05-06T20:46:25.403Z,60.40
2023-05-06T20:48:53.457Z,60.50
2023-05-06T20:51:21.838Z,60.60
2023-05-06T20:53:52.174Z,60.90
2023-05-06T20:56:22.048Z,61.00
2023-05-06T20:58:50.189Z,61.10
2023-05-06T21:01:18.567Z,61.10
2023-05-06T21:03:47.202Z,61.20
2023-05-06T21:06:16.085Z,61.30
2023-05-06T21:08:44.215Z,61.30
2023-05-06T21:11:13.672Z,61.40
2023-05-06T21:13:42.065Z,62.30
2023-05-06T21:16:10.207Z,61.60
2023-05-06T21:18:38.304Z,61.70
2023-05-06T21:21:06.391Z,62.00
2023-05-06T21:23:35.340Z,62.10
2023-05-06T21:26:03.429Z,62.20
2023-05-06T21:28:32.837Z,62.30
2023-05-06T21:31:00.940Z,62.50
2023-05-06T21:33:29.078Z,62.50
2023-05-06T21:35:57.253Z,62.50
2023-05-06T21:38:27.677Z,62.50
2023-05-06T21:40:55.882Z,62.50
2023-05-06T21:43:24.005Z,62.50
2023-05-06T21:45:53.504Z,62.50
2023-05-06T21:48:21.749Z,62.60
2023-05-06T21:50:49.776Z,62.40
2023-05-06T21:53:17.832Z,62.40
2023-05-06T21:55:45.869Z,62.40
2023-05-06T21:58:13.929Z,62.40
2023-05-06T22:00:42.005Z,62.30
2023-05-06T22:03:11.507Z,62.20
2023-05-06T22:05:40.039Z,62.30
2023-05-06T22:08:08.121Z,62.30
2023-05-06T22:10:36.170Z,62.30
2023-05-06T22:13:04.339Z,62.20
2023-05-06T22:15:32.660Z,62.20
2023-05-06T22:18:00.778Z,62.10
2023-05-06T22:20:30.667Z,62.10
2023-05-06T22:22:58.702Z,62.20
2023-05-06T22:25:26.918Z,62.10
2023-05-06T22:27:54.937Z,62.20
2023-05-06T22:30:22.991Z,62.20
2023-05-06T22:32:51.181Z,62.20
2023-05-06T22:35:19.379Z,62.10
2023-05-06T22:37:49.221Z,62.10
2023-05-06T22:40:17.275Z,62.20
2023-05-06T22:42:45.374Z,62.10
2023-05-06T22:45:13.624Z,62.30
2023-05-06T22:47:41.883Z,62.20
2023-05-06T22:50:10.705Z,62.40
2023-05-06T22:52:38.940Z,62.40
2023-05-06T22:55:10.230Z,62.50
2023-05-06T22:57:38.569Z,62.70
2023-05-06T23:00:08.735Z,62.60
2023-05-06T23:02:37.242Z,62.70
2023-05-06T23:05:06.531Z,62.70
2023-05-06T23:07:34.568Z,62.70
2023-05-06T23:10:02.800Z,62.70
2023-05-06T23:12:34.949Z,62.80
2023-05-06T23:15:03.163Z,63.10
2023-05-06T23:17:31.205Z,62.90
2023-05-06T23:19:59.927Z,62.90
2023-05-06T23:22:28.120Z,62.80
2023-05-06T23:24:56.205Z,62.90
2023-05-06T23:27:24.274Z,62.90
2023-05-06T23:29:53.682Z,63.00
2023-05-06T23:32:21.761Z,63.10
2023-05-06T23:34:52.380Z,63.10
2023-05-06T23:37:20.486Z,63.00
2023-05-06T23:39:48.610Z,63.10
2023-05-06T23:42:16.639Z,63.10
2023-05-06T23:44:44.689Z,63.30
2023-05-06T23:47:14.155Z,63.10
2023-05-06T23:49:42.191Z,63.00
2023-05-06T23:52:10.256Z,63.00
2023-05-06T23:54:38.323Z,63.00
2023-05-06T23:57:06.538Z,62.90
2023-05-06T23:59:34.594Z,62.90
